Startpagina
METAR-TAF:

METAR-TAF

Vliegvelden :

Vliegbasis Deelen

Arnhem, Nederland

breedte: 52-04N, lengte: 005-53E, hoogte: 48 m

Actueel weer

Dit bericht is 43 minuten geleden gemaakt, om 22:25 UTC
Wind 8 kt uit het zuidzuidwesten, variërend tussen het zuidoosten en het westzuidwesten
Temperatuur 8°C
Vochtigheid 93%
Druk 996 hPa
Zicht 10 km of meer
Verspreide wolken op 5200 ft

METAR: EHDL 052225Z AUTO 20008KT 140V250 9999 SCT052 08/07 Q0996 BLU

Tijdstip: 01:08 (23:08 UTC)


TAF: ontbreekt

Waarnemingen en weersverwachtingen van meer dan 4000 vliegvelden (METAR en TAF).

De beschikbare stations zijn de gele en rode punten op de kaart.

Ga met uw muis naar het station om de naam te zien.

Klik dan om waarnemingen en weersverwachtingen te zien.

kaart wijzigen: klik op de groene knoppen met een zwart kruis om in te zoomen, op de groene knop met een streepje om uit te zoomen of op de groene pijlen voor aangrenzende kaarten.


METAR-TAF: